createdAt,value
2023-02-14T00:00:33.067Z,32.50
2023-02-14T00:03:21.514Z,32.60
2023-02-14T00:06:11.406Z,33.65
2023-02-14T00:08:58.663Z,32.95
2023-02-14T00:11:46.093Z,33.10
2023-02-14T00:14:52.470Z,32.35
2023-02-14T00:17:39.811Z,33.55
2023-02-14T00:20:29.973Z,32.70
2023-02-14T00:23:17.121Z,33.33
2023-02-14T00:26:05.038Z,36.10
2023-02-14T00:28:52.205Z,34.17
2023-02-14T00:31:42.493Z,34.92
2023-02-14T00:34:29.790Z,35.80
2023-02-14T00:37:17.058Z,36.25
2023-02-14T00:40:06.708Z,33.78
2023-02-14T00:42:53.902Z,33.80
2023-02-14T00:45:43.695Z,34.20
2023-02-14T00:48:30.881Z,34.63
2023-02-14T00:51:18.786Z,35.00
2023-02-14T00:54:06.357Z,35.05
2023-02-14T00:56:53.531Z,34.65
2023-02-14T00:59:40.863Z,34.17
2023-02-14T01:02:28.256Z,35.17
2023-02-14T01:05:15.803Z,35.47
2023-02-14T01:08:03.004Z,34.97
2023-02-14T01:10:51.513Z,35.33
2023-02-14T01:13:41.475Z,37.10
2023-02-14T01:16:31.385Z,35.42
2023-02-14T01:19:29.641Z,37.80
2023-02-14T01:22:16.845Z,34.75
2023-02-14T01:25:04.936Z,35.50
2023-02-14T01:27:52.437Z,35.58
2023-02-14T01:30:40.913Z,34.88
2023-02-14T01:33:35.120Z,34.15
2023-02-14T01:36:28.575Z,35.83
2023-02-14T01:39:16.223Z,34.03
2023-02-14T01:42:03.876Z,35.35
2023-02-14T01:44:59.016Z,35.03
2023-02-14T01:47:50.401Z,34.88
2023-02-14T01:50:44.697Z,35.58
2023-02-14T01:53:32.072Z,32.45
2023-02-14T01:56:28.983Z,33.97
2023-02-14T01:59:21.043Z,34.10
2023-02-14T02:02:08.398Z,32.90
2023-02-14T02:04:58.008Z,33.38
2023-02-14T02:07:53.566Z,34.70
2023-02-14T02:10:40.829Z,33.70
2023-02-14T02:13:28.070Z,33.67
2023-02-14T02:16:53.519Z,32.38
2023-02-14T02:20:02.332Z,31.48
2023-02-14T02:23:08.568Z,33.80
2023-02-14T02:26:23.154Z,30.55
2023-02-14T02:29:33.940Z,30.83
2023-02-14T02:32:23.640Z,30.90
2023-02-14T02:35:45.159Z,32.15
2023-02-14T02:38:46.114Z,31.13
2023-02-14T02:41:48.765Z,30.65
2023-02-14T02:44:53.997Z,33.08
2023-02-14T02:48:02.656Z,31.80
2023-02-14T02:51:14.852Z,32.72
2023-02-14T02:54:13.432Z,32.20
2023-02-14T02:57:03.379Z,31.90
2023-02-14T02:59:52.969Z,31.45
2023-02-14T03:03:07.528Z,30.40
2023-02-14T03:05:59.073Z,30.90
2023-02-14T03:08:46.386Z,29.52
2023-02-14T03:11:36.124Z,32.95
2023-02-14T03:14:33.028Z,31.23
2023-02-14T03:17:58.019Z,31.70
2023-02-14T03:21:08.434Z,34.05
2023-02-14T03:24:17.558Z,31.58
2023-02-14T03:27:21.254Z,31.40
2023-02-14T03:30:16.570Z,31.17
2023-02-14T03:33:19.486Z,33.20
2023-02-14T03:39:29.657Z,32.60
2023-02-14T03:42:26.081Z,32.50
2023-02-14T03:45:18.976Z,32.85
2023-02-14T03:48:11.391Z,33.75
2023-02-14T03:51:00.374Z,32.08
2023-02-14T03:53:56.043Z,33.30
2023-02-14T03:56:48.264Z,33.05
2023-02-14T03:59:35.850Z,30.88
2023-02-14T04:02:37.979Z,29.90
2023-02-14T04:05:27.549Z,32.53
2023-02-14T04:08:25.338Z,30.58
2023-02-14T04:11:12.830Z,30.33
2023-02-14T04:13:59.922Z,32.28
2023-02-14T04:17:05.496Z,30.00
2023-02-14T04:19:53.345Z,30.55
2023-02-14T04:22:40.465Z,30.60
2023-02-14T04:25:27.699Z,30.50
2023-02-14T04:28:17.403Z,28.85
2023-02-14T04:31:07.123Z,30.38
2023-02-14T04:33:57.070Z,31.67
2023-02-14T04:36:44.200Z,29.60
2023-02-14T04:39:31.420Z,31.80
2023-02-14T04:42:18.685Z,32.97
2023-02-14T04:45:06.217Z,31.83
2023-02-14T04:47:53.427Z,31.90
2023-02-14T04:50:40.579Z,30.15
2023-02-14T04:53:27.866Z,29.58
2023-02-14T04:56:17.526Z,29.73
2023-02-14T04:59:04.889Z,32.53
2023-02-14T05:01:54.644Z,29.77
2023-02-14T05:04:42.007Z,29.55
2023-02-14T05:07:29.487Z,30.27
2023-02-14T05:10:17.448Z,28.30
2023-02-14T05:13:04.587Z,31.17
2023-02-14T05:15:54.326Z,28.33
2023-02-14T05:18:41.659Z,28.17
2023-02-14T05:21:28.950Z,29.08
2023-02-14T05:24:16.930Z,28.63
2023-02-14T05:27:07.888Z,32.50
2023-02-14T05:29:54.990Z,32.17
2023-02-14T05:32:47.190Z,30.90
2023-02-14T05:35:38.782Z,30.27
2023-02-14T05:38:28.640Z,31.30
2023-02-14T05:41:18.082Z,34.13
2023-02-14T05:44:05.334Z,31.38
2023-02-14T05:46:52.494Z,32.97
2023-02-14T05:49:39.668Z,35.17
2023-02-14T05:52:33.088Z,32.50
2023-02-14T05:55:26.359Z,32.45
2023-02-14T10:50:17.878Z,14.65
2023-02-14T10:53:23.739Z,14.40
2023-02-14T10:56:29.745Z,14.75
2023-02-14T11:00:10.549Z,13.90
2023-02-14T11:03:09.539Z,14.35
2023-02-14T11:05:57.134Z,14.20
2023-02-14T11:08:45.545Z,13.63
2023-02-14T11:11:35.548Z,14.48
2023-02-14T11:14:25.927Z,14.68
2023-02-14T11:17:32.654Z,14.70
2023-02-14T11:20:25.197Z,14.02
2023-02-14T11:26:20.616Z,12.65
2023-02-14T11:29:21.855Z,13.75
2023-02-14T11:32:34.463Z,13.35
2023-02-14T11:35:30.524Z,12.40
2023-02-14T11:38:39.904Z,13.27
2023-02-14T11:41:28.587Z,13.00
2023-02-14T11:44:37.575Z,13.00
2023-02-14T11:47:34.452Z,11.50
2023-02-14T11:50:26.357Z,12.75
2023-02-14T11:53:26.868Z,10.77
2023-02-14T11:56:18.097Z,11.63
2023-02-14T15:12:57.895Z,11.85
2023-02-14T15:20:05.454Z,13.43
2023-02-14T15:23:16.602Z,12.82
2023-02-14T16:05:17.993Z,12.38
2023-02-14T16:06:11.061Z,15.00
2023-02-14T16:13:59.550Z,14.27
2023-02-14T16:17:07.006Z,15.43
2023-02-14T16:19:54.274Z,18.27
2023-02-14T16:22:41.997Z,17.05
2023-02-14T16:25:29.241Z,18.77
2023-02-14T16:28:17.287Z,19.02
2023-02-14T16:31:13.795Z,18.83
2023-02-14T16:34:01.691Z,18.15
2023-02-14T16:36:53.862Z,18.63
2023-02-14T16:39:41.123Z,21.73
2023-02-14T16:42:31.384Z,21.80
2023-02-14T16:45:21.896Z,20.67
2023-02-14T16:48:13.851Z,31.35
2023-02-14T16:51:01.786Z,28.70
2023-02-14T16:53:58.534Z,25.02
2023-02-14T16:56:54.865Z,22.83
2023-02-14T16:59:42.326Z,24.25
2023-02-14T17:02:30.827Z,23.70
2023-02-14T17:05:21.399Z,24.08
2023-02-14T17:08:16.223Z,23.40
2023-02-14T17:11:06.374Z,22.38
2023-02-14T17:14:00.894Z,24.17
2023-02-14T17:16:51.153Z,24.42
2023-02-14T17:19:40.871Z,22.30
2023-02-14T17:22:30.675Z,22.30
2023-02-14T17:25:32.410Z,23.92
2023-02-14T17:28:19.694Z,22.23
2023-02-14T17:31:09.450Z,21.65
2023-02-14T17:33:57.093Z,22.52
2023-02-14T17:36:44.783Z,21.30
2023-02-14T17:39:34.592Z,23.52
2023-02-14T17:42:22.291Z,22.35
2023-02-14T17:45:12.251Z,22.85
2023-02-14T17:48:02.730Z,23.30
2023-02-14T17:50:52.302Z,24.92
2023-02-14T17:53:41.691Z,23.02
2023-02-14T17:56:29.507Z,25.10
2023-02-14T17:59:19.948Z,24.85
2023-02-14T18:02:07.543Z,26.42
2023-02-14T18:04:55.352Z,25.42
2023-02-14T18:07:44.136Z,23.60
2023-02-14T18:10:31.477Z,23.58
2023-02-14T18:13:18.905Z,24.95
2023-02-14T18:16:10.327Z,25.90
2023-02-14T18:18:57.700Z,30.42
2023-02-14T18:21:58.034Z,30.40
2023-02-14T18:24:48.607Z,33.17
2023-02-14T18:30:47.617Z,34.50
2023-02-14T18:33:36.848Z,45.45
2023-02-14T18:36:26.997Z,42.97
2023-02-14T18:39:19.363Z,42.50
2023-02-14T18:42:06.999Z,37.65
2023-02-14T18:44:54.502Z,34.90
2023-02-14T18:47:44.493Z,35.85
2023-02-14T18:50:33.579Z,33.92
2023-02-14T18:53:20.810Z,38.28
2023-02-14T18:56:12.552Z,47.53
2023-02-14T18:59:02.590Z,46.37
2023-02-14T19:01:52.255Z,40.70
2023-02-14T19:04:41.920Z,42.38
2023-02-14T19:07:29.248Z,40.35
2023-02-14T19:13:34.589Z,41.70
2023-02-14T19:14:39.164Z,40.83
2023-02-14T19:16:25.194Z,43.70
2023-02-14T19:19:26.131Z,45.13
2023-02-14T19:22:13.674Z,44.38
2023-02-14T19:25:03.301Z,43.50
2023-02-14T19:27:50.623Z,45.95
2023-02-14T19:30:38.506Z,44.33
2023-02-14T19:33:26.554Z,46.15
2023-02-14T19:36:17.179Z,48.45
2023-02-14T19:39:05.452Z,47.78
2023-02-14T19:41:55.168Z,44.10
2023-02-14T19:44:46.021Z,48.30
2023-02-14T19:47:46.334Z,47.50
2023-02-14T19:50:34.661Z,47.58
2023-02-14T19:53:25.815Z,45.20
2023-02-14T19:56:18.430Z,48.13
2023-02-14T20:02:00.864Z,45.30
2023-02-14T20:04:48.723Z,47.85
2023-02-14T20:07:36.141Z,48.42
2023-02-14T20:10:29.902Z,48.72
2023-02-14T20:13:18.236Z,49.25
2023-02-14T20:16:05.692Z,47.05
2023-02-14T20:18:54.130Z,46.45
2023-02-14T20:21:44.444Z,47.42
2023-02-14T20:24:32.598Z,51.58
2023-02-14T20:27:20.312Z,54.67
2023-02-14T20:30:11.476Z,57.97
2023-02-14T20:32:58.978Z,55.17
2023-02-14T20:35:49.149Z,53.10
2023-02-14T20:38:36.838Z,55.30
2023-02-14T20:41:25.978Z,56.08
2023-02-14T20:44:19.850Z,54.20
2023-02-14T20:47:07.805Z,57.20
2023-02-14T20:49:55.320Z,53.30
2023-02-14T20:52:42.788Z,50.60
2023-02-14T20:55:31.375Z,49.90
2023-02-14T20:58:22.541Z,49.38
2023-02-14T21:01:15.802Z,49.05
2023-02-14T21:04:03.540Z,48.70
2023-02-14T21:06:51.053Z,48.42
2023-02-14T21:09:41.084Z,48.08
2023-02-14T21:12:28.309Z,47.85
2023-02-14T21:15:16.124Z,46.35
2023-02-14T21:18:04.923Z,47.60
2023-02-14T21:21:06.260Z,46.80
2023-02-14T21:23:54.817Z,50.55
2023-02-14T21:26:43.348Z,49.70
2023-02-14T21:29:30.491Z,46.88
2023-02-14T21:32:21.097Z,50.13
2023-02-14T21:35:11.003Z,48.45
2023-02-14T21:37:58.240Z,46.97
2023-02-14T21:40:45.378Z,46.50
2023-02-14T21:43:47.476Z,48.05
2023-02-14T21:46:38.955Z,49.90
2023-02-14T21:49:44.637Z,47.50
2023-02-14T21:52:31.950Z,45.42
2023-02-14T21:55:19.146Z,46.20
2023-02-14T21:58:06.384Z,45.35
2023-02-14T22:00:55.934Z,45.53
2023-02-14T22:03:43.290Z,45.03
2023-02-14T22:06:31.208Z,49.38
2023-02-14T22:09:19.172Z,48.95
2023-02-14T22:12:06.594Z,52.45
2023-02-14T22:14:53.952Z,55.97
2023-02-14T22:17:43.278Z,53.05
2023-02-14T22:20:30.559Z,47.83
2023-02-14T22:23:17.805Z,47.08
2023-02-14T22:26:23.024Z,45.22
2023-02-14T22:29:17.342Z,47.95
2023-02-14T22:32:04.777Z,48.90
2023-02-14T22:34:54.955Z,49.35
2023-02-14T22:37:42.284Z,50.83
2023-02-14T22:40:29.520Z,53.33
2023-02-14T22:43:16.901Z,53.55
2023-02-14T22:46:09.495Z,55.28
2023-02-14T22:48:57.630Z,52.88
2023-02-14T22:51:44.978Z,51.47
2023-02-14T22:54:32.367Z,51.65
2023-02-14T22:57:20.758Z,52.80
2023-02-14T23:00:12.008Z,50.83
2023-02-14T23:02:59.271Z,48.25
2023-02-14T23:05:46.487Z,47.55
2023-02-14T23:08:33.780Z,45.83
2023-02-14T23:11:24.017Z,45.95
2023-02-14T23:14:31.369Z,46.22
2023-02-14T23:17:39.174Z,46.05
2023-02-14T23:20:48.532Z,46.47
2023-02-14T23:23:35.817Z,46.60
2023-02-14T23:26:22.963Z,50.55
2023-02-14T23:29:10.287Z,47.67
2023-02-14T23:31:57.832Z,52.53
2023-02-14T23:34:45.638Z,49.53
2023-02-14T23:37:33.591Z,48.85
2023-02-14T23:40:21.099Z,49.85
2023-02-14T23:43:08.293Z,55.63
2023-02-14T23:45:55.864Z,52.92
2023-02-14T23:48:43.078Z,51.08
2023-02-14T23:51:32.720Z,56.13
2023-02-14T23:54:21.216Z,51.20
2023-02-14T23:57:13.892Z,54.92
